Impacts TAF Board INFO
FOR SITUATIONAL AWARENESS. NOT TO BE USED FOR FLIGHT PLANNING PURPOSES.
IDs:

KTCL - Tuscaloosa Rgnl, AL, US

Issued at 1915 UTC 19 Feb 2018
Updated at 2208 UTC 19 Feb 2018
Potential Impact None Slight Moderate High
Time<<20/11Z 20/12Z 20/13Z 20/14Z 20/15Z 20/16Z 20/17Z 20/18Z 20/19Z 20/20Z 20/21Z 20/22Z 20/23Z>>
Type PRVL PRVL PRVL PRVL PRVL PRVL PRVL
VIS >6 >6 >6 >6 >6 >6 >6
CIG 25 25 25 25 25 25 25
Cover BKN BKN BKN BKN BKN BKN BKN
FltCat MVFR MVFR MVFR MVFR MVFR MVFR MVFR
WX -- -- -- -- -- -- --
WDir 140 140 140 140 140 140 140
WSpd 4 4 4 4 4 4 4
WGst -- -- -- -- -- -- --

Raw TAF
KTCL 191915Z 1919/2018 17008G18KT P6SM BKN060
  FM200200 17004KT P6SM SCT060
  FM201100 14004KT P6SM BKN025


METAR Board
Radar Display
Forecast Discussion

FOR SITUATIONAL AWARENESS. NOT TO BE USED FOR FLIGHT PLANNING PURPOSES.